sensor_id;sensor_type;location;lat;lon;timestamp;temperature;humidity
16846;DHT22;8539;53.188;8.696;2023-03-17T00:00:15;5.60;99.90
16846;DHT22;8539;53.188;8.696;2023-03-17T00:02:43;5.40;99.90
16846;DHT22;8539;53.188;8.696;2023-03-17T00:05:25;5.40;99.90
16846;DHT22;8539;53.188;8.696;2023-03-17T00:08:27;5.40;99.90
16846;DHT22;8539;53.188;8.696;2023-03-17T00:10:54;5.40;99.90
16846;DHT22;8539;53.188;8.696;2023-03-17T00:13:21;5.40;99.90
16846;DHT22;8539;53.188;8.696;2023-03-17T00:15:54;5.40;99.90
16846;DHT22;8539;53.188;8.696;2023-03-17T00:18:21;5.50;99.90
16846;DHT22;8539;53.188;8.696;2023-03-17T00:20:48;5.50;99.90
16846;DHT22;8539;53.188;8.696;2023-03-17T00:23:22;5.40;99.90
16846;DHT22;8539;53.188;8.696;2023-03-17T00:25:50;5.40;99.90
16846;DHT22;8539;53.188;8.696;2023-03-17T00:28:23;5.40;99.90
16846;DHT22;8539;53.188;8.696;2023-03-17T00:30:55;5.40;99.90
16846;DHT22;8539;53.188;8.696;2023-03-17T00:33:24;5.40;99.90
16846;DHT22;8539;53.188;8.696;2023-03-17T00:35:51;5.30;99.90
16846;DHT22;8539;53.188;8.696;2023-03-17T00:38:19;5.30;99.90
16846;DHT22;8539;53.188;8.696;2023-03-17T00:40:46;5.30;99.90
16846;DHT22;8539;53.188;8.696;2023-03-17T00:43:13;5.20;99.90
16846;DHT22;8539;53.188;8.696;2023-03-17T00:45:40;5.20;99.90
16846;DHT22;8539;53.188;8.696;2023-03-17T00:48:18;5.20;99.90
16846;DHT22;8539;53.188;8.696;2023-03-17T00:50:47;5.20;99.90
16846;DHT22;8539;53.188;8.696;2023-03-17T00:53:16;5.20;99.90
16846;DHT22;8539;53.188;8.696;2023-03-17T00:55:43;5.30;99.90
16846;DHT22;8539;53.188;8.696;2023-03-17T01:00:50;5.20;99.90
16846;DHT22;8539;53.188;8.696;2023-03-17T01:03:17;5.20;99.90
16846;DHT22;8539;53.188;8.696;2023-03-17T01:05:43;5.20;99.90
16846;DHT22;8539;53.188;8.696;2023-03-17T01:08:09;5.20;99.90
16846;DHT22;8539;53.188;8.696;2023-03-17T01:10:35;5.20;99.90
16846;DHT22;8539;53.188;8.696;2023-03-17T01:13:02;5.30;99.90
16846;DHT22;8539;53.188;8.696;2023-03-17T01:15:30;5.20;99.90
16846;DHT22;8539;53.188;8.696;2023-03-17T01:17:58;5.20;99.90
16846;DHT22;8539;53.188;8.696;2023-03-17T01:20:28;5.30;99.90
16846;DHT22;8539;53.188;8.696;2023-03-17T01:22:55;5.20;99.90
16846;DHT22;8539;53.188;8.696;2023-03-17T01:25:21;5.20;99.90
16846;DHT22;8539;53.188;8.696;2023-03-17T01:27:48;5.10;99.90
16846;DHT22;8539;53.188;8.696;2023-03-17T01:30:33;5.20;99.90
16846;DHT22;8539;53.188;8.696;2023-03-17T01:32:59;5.20;99.90
16846;DHT22;8539;53.188;8.696;2023-03-17T01:35:27;5.10;99.90
16846;DHT22;8539;53.188;8.696;2023-03-17T01:37:57;5.10;99.90
16846;DHT22;8539;53.188;8.696;2023-03-17T01:40:26;5.30;99.90
16846;DHT22;8539;53.188;8.696;2023-03-17T01:48:41;5.10;99.90
16846;DHT22;8539;53.188;8.696;2023-03-17T01:53:53;5.10;99.90
16846;DHT22;8539;53.188;8.696;2023-03-17T01:56:19;5.00;99.90
16846;DHT22;8539;53.188;8.696;2023-03-17T01:58:49;5.10;99.90
16846;DHT22;8539;53.188;8.696;2023-03-17T02:01:18;5.10;99.90
16846;DHT22;8539;53.188;8.696;2023-03-17T02:03:47;5.00;99.90
16846;DHT22;8539;53.188;8.696;2023-03-17T02:06:13;5.00;99.90
16846;DHT22;8539;53.188;8.696;2023-03-17T02:08:39;5.00;99.90
16846;DHT22;8539;53.188;8.696;2023-03-17T02:11:06;5.00;99.90
16846;DHT22;8539;53.188;8.696;2023-03-17T02:13:32;5.00;99.90
16846;DHT22;8539;53.188;8.696;2023-03-17T02:15:59;5.00;99.90
16846;DHT22;8539;53.188;8.696;2023-03-17T02:18:26;5.00;99.90
16846;DHT22;8539;53.188;8.696;2023-03-17T02:23:20;5.00;99.90
16846;DHT22;8539;53.188;8.696;2023-03-17T02:25:50;5.10;99.90
16846;DHT22;8539;53.188;8.696;2023-03-17T02:28:24;5.10;99.90
16846;DHT22;8539;53.188;8.696;2023-03-17T02:30:50;5.10;99.90
16846;DHT22;8539;53.188;8.696;2023-03-17T02:33:17;5.00;99.90
16846;DHT22;8539;53.188;8.696;2023-03-17T02:35:43;5.40;99.90
16846;DHT22;8539;53.188;8.696;2023-03-17T02:38:09;5.00;99.90
16846;DHT22;8539;53.188;8.696;2023-03-17T02:40:36;5.10;99.90
16846;DHT22;8539;53.188;8.696;2023-03-17T02:43:02;5.00;99.90
16846;DHT22;8539;53.188;8.696;2023-03-17T02:45:29;5.00;99.90
16846;DHT22;8539;53.188;8.696;2023-03-17T02:47:56;5.10;99.90
16846;DHT22;8539;53.188;8.696;2023-03-17T02:50:25;5.10;99.90
16846;DHT22;8539;53.188;8.696;2023-03-17T02:52:52;5.10;99.90
16846;DHT22;8539;53.188;8.696;2023-03-17T02:55:18;5.10;99.90
16846;DHT22;8539;53.188;8.696;2023-03-17T02:57:45;5.10;99.90
16846;DHT22;8539;53.188;8.696;2023-03-17T03:00:12;5.10;99.90
16846;DHT22;8539;53.188;8.696;2023-03-17T03:02:39;5.10;99.90
16846;DHT22;8539;53.188;8.696;2023-03-17T03:05:05;5.00;99.90
16846;DHT22;8539;53.188;8.696;2023-03-17T03:07:32;5.00;99.90
16846;DHT22;8539;53.188;8.696;2023-03-17T03:09:58;5.00;99.90
16846;DHT22;8539;53.188;8.696;2023-03-17T03:12:25;4.90;99.90
16846;DHT22;8539;53.188;8.696;2023-03-17T03:14:51;4.90;99.90
16846;DHT22;8539;53.188;8.696;2023-03-17T03:17:17;4.80;99.90
16846;DHT22;8539;53.188;8.696;2023-03-17T03:19:44;4.70;99.90
16846;DHT22;8539;53.188;8.696;2023-03-17T03:22:10;4.70;99.90
16846;DHT22;8539;53.188;8.696;2023-03-17T03:24:36;4.70;99.90
16846;DHT22;8539;53.188;8.696;2023-03-17T03:27:02;4.70;99.90
16846;DHT22;8539;53.188;8.696;2023-03-17T03:29:29;4.70;99.90
16846;DHT22;8539;53.188;8.696;2023-03-17T03:31:55;4.70;99.90
16846;DHT22;8539;53.188;8.696;2023-03-17T03:34:21;4.60;99.90
16846;DHT22;8539;53.188;8.696;2023-03-17T03:36:47;4.70;99.90
16846;DHT22;8539;53.188;8.696;2023-03-17T03:39:13;4.60;99.90
16846;DHT22;8539;53.188;8.696;2023-03-17T03:41:40;4.60;99.90
16846;DHT22;8539;53.188;8.696;2023-03-17T03:44:06;4.50;99.90
16846;DHT22;8539;53.188;8.696;2023-03-17T03:46:32;4.50;99.90
16846;DHT22;8539;53.188;8.696;2023-03-17T03:49:00;4.60;99.90
16846;DHT22;8539;53.188;8.696;2023-03-17T03:51:27;4.60;99.90
16846;DHT22;8539;53.188;8.696;2023-03-17T03:53:53;4.40;99.90
16846;DHT22;8539;53.188;8.696;2023-03-17T03:56:19;4.50;99.90
16846;DHT22;8539;53.188;8.696;2023-03-17T03:58:46;4.50;99.90
16846;DHT22;8539;53.188;8.696;2023-03-17T04:01:12;4.40;99.90
16846;DHT22;8539;53.188;8.696;2023-03-17T04:03:38;4.50;99.90
16846;DHT22;8539;53.188;8.696;2023-03-17T04:06:05;4.30;99.90
16846;DHT22;8539;53.188;8.696;2023-03-17T04:08:31;4.30;99.90
16846;DHT22;8539;53.188;8.696;2023-03-17T04:10:58;4.30;99.90
16846;DHT22;8539;53.188;8.696;2023-03-17T04:13:24;4.40;99.90
16846;DHT22;8539;53.188;8.696;2023-03-17T04:15:50;4.40;99.90
16846;DHT22;8539;53.188;8.696;2023-03-17T04:18:17;4.30;99.90
16846;DHT22;8539;53.188;8.696;2023-03-17T04:20:43;4.30;99.90
16846;DHT22;8539;53.188;8.696;2023-03-17T04:23:09;4.30;99.90
16846;DHT22;8539;53.188;8.696;2023-03-17T04:25:35;4.20;99.90
16846;DHT22;8539;53.188;8.696;2023-03-17T04:28:01;4.20;99.90
16846;DHT22;8539;53.188;8.696;2023-03-17T04:30:27;4.30;99.90
16846;DHT22;8539;53.188;8.696;2023-03-17T04:32:53;4.20;99.90
16846;DHT22;8539;53.188;8.696;2023-03-17T04:35:20;4.20;99.90
16846;DHT22;8539;53.188;8.696;2023-03-17T04:37:48;4.10;99.90
16846;DHT22;8539;53.188;8.696;2023-03-17T04:40:15;4.10;99.90
16846;DHT22;8539;53.188;8.696;2023-03-17T04:42:42;4.10;99.90
16846;DHT22;8539;53.188;8.696;2023-03-17T04:45:10;4.10;99.90
16846;DHT22;8539;53.188;8.696;2023-03-17T04:47:36;4.10;99.90
16846;DHT22;8539;53.188;8.696;2023-03-17T04:50:03;4.10;99.90
16846;DHT22;8539;53.188;8.696;2023-03-17T04:52:30;4.10;99.90
16846;DHT22;8539;53.188;8.696;2023-03-17T04:54:56;4.00;99.90
16846;DHT22;8539;53.188;8.696;2023-03-17T04:57:22;4.00;99.90
16846;DHT22;8539;53.188;8.696;2023-03-17T04:59:49;4.00;99.90
16846;DHT22;8539;53.188;8.696;2023-03-17T05:02:15;4.00;99.90
16846;DHT22;8539;53.188;8.696;2023-03-17T05:04:43;4.00;99.90
16846;DHT22;8539;53.188;8.696;2023-03-17T05:07:11;4.00;99.90
16846;DHT22;8539;53.188;8.696;2023-03-17T05:09:37;4.00;99.90
16846;DHT22;8539;53.188;8.696;2023-03-17T05:12:03;4.10;99.90
16846;DHT22;8539;53.188;8.696;2023-03-17T05:14:30;3.90;99.90
16846;DHT22;8539;53.188;8.696;2023-03-17T05:16:56;3.90;99.90
16846;DHT22;8539;53.188;8.696;2023-03-17T05:19:22;3.90;99.90
16846;DHT22;8539;53.188;8.696;2023-03-17T05:21:48;3.90;99.90
16846;DHT22;8539;53.188;8.696;2023-03-17T05:24:15;3.90;99.90
16846;DHT22;8539;53.188;8.696;2023-03-17T05:26:41;3.90;99.90
16846;DHT22;8539;53.188;8.696;2023-03-17T05:29:07;3.90;99.90
16846;DHT22;8539;53.188;8.696;2023-03-17T05:31:33;3.90;99.90
16846;DHT22;8539;53.188;8.696;2023-03-17T05:33:59;3.90;99.90
16846;DHT22;8539;53.188;8.696;2023-03-17T05:36:26;3.90;99.90
16846;DHT22;8539;53.188;8.696;2023-03-17T05:38:52;4.00;99.90
16846;DHT22;8539;53.188;8.696;2023-03-17T05:41:18;4.00;99.90
16846;DHT22;8539;53.188;8.696;2023-03-17T05:43:45;4.00;99.90
16846;DHT22;8539;53.188;8.696;2023-03-17T05:46:11;4.00;99.90
16846;DHT22;8539;53.188;8.696;2023-03-17T05:48:37;4.10;99.90
16846;DHT22;8539;53.188;8.696;2023-03-17T05:51:03;4.00;99.90
16846;DHT22;8539;53.188;8.696;2023-03-17T05:53:34;4.10;99.90
16846;DHT22;8539;53.188;8.696;2023-03-17T05:56:03;4.20;99.90
16846;DHT22;8539;53.188;8.696;2023-03-17T05:58:29;4.00;99.90
16846;DHT22;8539;53.188;8.696;2023-03-17T06:00:55;4.00;99.90
16846;DHT22;8539;53.188;8.696;2023-03-17T06:03:21;4.00;99.90
16846;DHT22;8539;53.188;8.696;2023-03-17T06:05:47;4.10;99.90
16846;DHT22;8539;53.188;8.696;2023-03-17T06:08:13;4.10;99.90
16846;DHT22;8539;53.188;8.696;2023-03-17T06:10:40;4.10;99.90
16846;DHT22;8539;53.188;8.696;2023-03-17T06:13:06;4.20;99.90
16846;DHT22;8539;53.188;8.696;2023-03-17T06:15:33;4.20;99.90
16846;DHT22;8539;53.188;8.696;2023-03-17T06:18:02;4.30;99.90
16846;DHT22;8539;53.188;8.696;2023-03-17T06:20:33;4.30;99.90
16846;DHT22;8539;53.188;8.696;2023-03-17T06:23:00;4.30;99.90
16846;DHT22;8539;53.188;8.696;2023-03-17T06:25:26;4.40;99.90
16846;DHT22;8539;53.188;8.696;2023-03-17T06:27:52;4.40;99.90
16846;DHT22;8539;53.188;8.696;2023-03-17T06:30:21;4.50;99.90
16846;DHT22;8539;53.188;8.696;2023-03-17T06:32:47;4.50;99.90
16846;DHT22;8539;53.188;8.696;2023-03-17T06:35:13;4.50;99.90
16846;DHT22;8539;53.188;8.696;2023-03-17T06:37:39;4.60;99.90
16846;DHT22;8539;53.188;8.696;2023-03-17T06:40:06;4.70;99.90
16846;DHT22;8539;53.188;8.696;2023-03-17T06:42:35;4.70;99.90
16846;DHT22;8539;53.188;8.696;2023-03-17T06:45:02;4.80;99.90
16846;DHT22;8539;53.188;8.696;2023-03-17T06:47:29;4.90;99.90
16846;DHT22;8539;53.188;8.696;2023-03-17T06:49:56;5.00;99.90
16846;DHT22;8539;53.188;8.696;2023-03-17T06:52:22;5.10;99.90
16846;DHT22;8539;53.188;8.696;2023-03-17T06:54:48;5.20;99.90
16846;DHT22;8539;53.188;8.696;2023-03-17T06:57:14;5.30;99.90
16846;DHT22;8539;53.188;8.696;2023-03-17T06:59:41;5.40;99.90
16846;DHT22;8539;53.188;8.696;2023-03-17T07:02:09;5.40;99.90
16846;DHT22;8539;53.188;8.696;2023-03-17T07:04:36;5.50;99.90
16846;DHT22;8539;53.188;8.696;2023-03-17T07:07:06;5.80;99.90
16846;DHT22;8539;53.188;8.696;2023-03-17T07:09:33;5.80;99.90
16846;DHT22;8539;53.188;8.696;2023-03-17T07:12:00;6.00;99.90
16846;DHT22;8539;53.188;8.696;2023-03-17T07:14:34;6.20;99.90
16846;DHT22;8539;53.188;8.696;2023-03-17T07:17:02;6.60;99.90
16846;DHT22;8539;53.188;8.696;2023-03-17T07:19:29;7.10;99.90
16846;DHT22;8539;53.188;8.696;2023-03-17T07:21:56;7.60;99.90
16846;DHT22;8539;53.188;8.696;2023-03-17T07:24:23;7.90;99.90
16846;DHT22;8539;53.188;8.696;2023-03-17T07:26:49;8.00;99.90
16846;DHT22;8539;53.188;8.696;2023-03-17T07:29:16;8.40;99.90
16846;DHT22;8539;53.188;8.696;2023-03-17T07:31:43;8.70;99.90
16846;DHT22;8539;53.188;8.696;2023-03-17T07:34:10;9.10;99.90
16846;DHT22;8539;53.188;8.696;2023-03-17T07:36:36;9.50;99.90
16846;DHT22;8539;53.188;8.696;2023-03-17T07:39:03;9.90;99.90
16846;DHT22;8539;53.188;8.696;2023-03-17T07:41:32;10.30;99.90
16846;DHT22;8539;53.188;8.696;2023-03-17T07:43:59;10.70;99.90
16846;DHT22;8539;53.188;8.696;2023-03-17T07:46:25;11.00;99.90
16846;DHT22;8539;53.188;8.696;2023-03-17T07:48:52;11.40;99.90
16846;DHT22;8539;53.188;8.696;2023-03-17T07:51:20;11.70;99.90
16846;DHT22;8539;53.188;8.696;2023-03-17T07:53:47;12.10;99.90
16846;DHT22;8539;53.188;8.696;2023-03-17T07:56:16;12.40;99.90
16846;DHT22;8539;53.188;8.696;2023-03-17T07:58:43;12.60;99.90
16846;DHT22;8539;53.188;8.696;2023-03-17T08:01:10;12.80;99.90
16846;DHT22;8539;53.188;8.696;2023-03-17T08:03:36;12.90;99.90
16846;DHT22;8539;53.188;8.696;2023-03-17T08:06:04;12.90;99.90
16846;DHT22;8539;53.188;8.696;2023-03-17T08:08:31;12.80;99.90
16846;DHT22;8539;53.188;8.696;2023-03-17T08:11:01;12.60;99.90
16846;DHT22;8539;53.188;8.696;2023-03-17T08:13:30;12.20;99.90
16846;DHT22;8539;53.188;8.696;2023-03-17T08:15:57;11.70;99.90
16846;DHT22;8539;53.188;8.696;2023-03-17T08:18:23;11.60;99.90
16846;DHT22;8539;53.188;8.696;2023-03-17T08:20:49;11.60;99.90
16846;DHT22;8539;53.188;8.696;2023-03-17T08:23:17;11.70;99.90
16846;DHT22;8539;53.188;8.696;2023-03-17T08:25:43;11.70;99.90
16846;DHT22;8539;53.188;8.696;2023-03-17T08:28:09;11.70;99.90
16846;DHT22;8539;53.188;8.696;2023-03-17T08:30:35;11.60;99.90
16846;DHT22;8539;53.188;8.696;2023-03-17T08:33:05;11.70;99.90
16846;DHT22;8539;53.188;8.696;2023-03-17T08:35:32;11.90;99.90
16846;DHT22;8539;53.188;8.696;2023-03-17T08:37:58;12.10;99.90
16846;DHT22;8539;53.188;8.696;2023-03-17T08:40:25;12.30;99.90
16846;DHT22;8539;53.188;8.696;2023-03-17T08:42:51;12.30;99.90
16846;DHT22;8539;53.188;8.696;2023-03-17T08:45:17;12.30;99.90
16846;DHT22;8539;53.188;8.696;2023-03-17T08:47:45;12.50;99.90
16846;DHT22;8539;53.188;8.696;2023-03-17T08:50:16;12.70;99.90
16846;DHT22;8539;53.188;8.696;2023-03-17T08:52:44;12.90;99.90
16846;DHT22;8539;53.188;8.696;2023-03-17T08:55:12;13.10;99.90
16846;DHT22;8539;53.188;8.696;2023-03-17T08:57:38;13.20;99.80
16846;DHT22;8539;53.188;8.696;2023-03-17T09:00:05;13.20;99.80
16846;DHT22;8539;53.188;8.696;2023-03-17T09:02:37;13.20;99.70
16846;DHT22;8539;53.188;8.696;2023-03-17T09:05:06;13.20;99.60
16846;DHT22;8539;53.188;8.696;2023-03-17T09:07:33;13.30;99.60
16846;DHT22;8539;53.188;8.696;2023-03-17T09:09:59;13.40;99.60
16846;DHT22;8539;53.188;8.696;2023-03-17T09:12:26;13.60;99.70
16846;DHT22;8539;53.188;8.696;2023-03-17T09:14:53;13.80;99.40
16846;DHT22;8539;53.188;8.696;2023-03-17T09:17:21;13.90;99.20
16846;DHT22;8539;53.188;8.696;2023-03-17T09:19:48;14.00;99.10
16846;DHT22;8539;53.188;8.696;2023-03-17T09:22:15;13.90;98.70
16846;DHT22;8539;53.188;8.696;2023-03-17T09:24:42;13.90;98.50
16846;DHT22;8539;53.188;8.696;2023-03-17T09:27:08;13.80;98.00
16846;DHT22;8539;53.188;8.696;2023-03-17T09:29:34;13.80;97.90
16846;DHT22;8539;53.188;8.696;2023-03-17T09:32:00;13.90;98.00
16846;DHT22;8539;53.188;8.696;2023-03-17T09:34:27;14.00;97.90
16846;DHT22;8539;53.188;8.696;2023-03-17T09:36:55;14.10;97.80
16846;DHT22;8539;53.188;8.696;2023-03-17T09:39:22;14.30;97.80
16846;DHT22;8539;53.188;8.696;2023-03-17T09:44:46;14.60;97.70
16846;DHT22;8539;53.188;8.696;2023-03-17T09:50:02;14.50;97.10
16846;DHT22;8539;53.188;8.696;2023-03-17T09:52:31;14.40;97.00
16846;DHT22;8539;53.188;8.696;2023-03-17T09:55:00;14.40;96.60
16846;DHT22;8539;53.188;8.696;2023-03-17T09:57:36;14.60;96.40
16846;DHT22;8539;53.188;8.696;2023-03-17T10:00:20;14.80;96.40
16846;DHT22;8539;53.188;8.696;2023-03-17T10:02:51;14.90;96.50
16846;DHT22;8539;53.188;8.696;2023-03-17T10:05:27;14.90;96.40
16846;DHT22;8539;53.188;8.696;2023-03-17T10:18:14;15.10;95.20
16846;DHT22;8539;53.188;8.696;2023-03-17T10:20:48;15.20;95.20
16846;DHT22;8539;53.188;8.696;2023-03-17T10:23:20;15.20;95.00
16846;DHT22;8539;53.188;8.696;2023-03-17T10:25:50;15.30;95.00
16846;DHT22;8539;53.188;8.696;2023-03-17T10:28:29;15.40;94.80
16846;DHT22;8539;53.188;8.696;2023-03-17T10:31:13;15.50;94.60
16846;DHT22;8539;53.188;8.696;2023-03-17T10:33:48;15.70;94.60
16846;DHT22;8539;53.188;8.696;2023-03-17T10:36:16;15.80;94.40
16846;DHT22;8539;53.188;8.696;2023-03-17T10:38:56;16.00;94.40
16846;DHT22;8539;53.188;8.696;2023-03-17T10:41:22;16.20;94.20
16846;DHT22;8539;53.188;8.696;2023-03-17T10:43:50;16.30;93.90
16846;DHT22;8539;53.188;8.696;2023-03-17T10:46:22;16.30;93.70
16846;DHT22;8539;53.188;8.696;2023-03-17T10:48:58;16.20;93.30
16846;DHT22;8539;53.188;8.696;2023-03-17T10:51:37;16.20;93.10
16846;DHT22;8539;53.188;8.696;2023-03-17T10:54:08;16.30;92.90
16846;DHT22;8539;53.188;8.696;2023-03-17T10:56:38;16.40;92.70
16846;DHT22;8539;53.188;8.696;2023-03-17T10:59:17;16.40;92.60
16846;DHT22;8539;53.188;8.696;2023-03-17T11:01:48;16.30;92.60
16846;DHT22;8539;53.188;8.696;2023-03-17T11:06:57;16.40;92.60
16846;DHT22;8539;53.188;8.696;2023-03-17T11:09:25;16.50;92.50
16846;DHT22;8539;53.188;8.696;2023-03-17T11:12:22;16.50;92.50
16846;DHT22;8539;53.188;8.696;2023-03-17T11:14:48;16.40;92.50
16846;DHT22;8539;53.188;8.696;2023-03-17T11:17:20;16.50;92.30
16846;DHT22;8539;53.188;8.696;2023-03-17T11:19:56;16.50;92.10
16846;DHT22;8539;53.188;8.696;2023-03-17T11:25:09;16.60;92.00
16846;DHT22;8539;53.188;8.696;2023-03-17T11:30:30;17.00;92.20
16846;DHT22;8539;53.188;8.696;2023-03-17T11:38:23;17.40;91.90
16846;DHT22;8539;53.188;8.696;2023-03-17T11:43:56;17.10;91.30
16846;DHT22;8539;53.188;8.696;2023-03-17T11:49:20;17.20;91.00
16846;DHT22;8539;53.188;8.696;2023-03-17T11:56:58;18.10;91.40
16846;DHT22;8539;53.188;8.696;2023-03-17T11:59:39;18.30;91.20
16846;DHT22;8539;53.188;8.696;2023-03-17T12:07:20;17.90;89.80
16846;DHT22;8539;53.188;8.696;2023-03-17T12:12:45;17.60;89.40
16846;DHT22;8539;53.188;8.696;2023-03-17T12:15:35;17.60;89.40
16846;DHT22;8539;53.188;8.696;2023-03-17T12:21:20;17.90;89.70
16846;DHT22;8539;53.188;8.696;2023-03-17T12:23:50;18.10;89.90
16846;DHT22;8539;53.188;8.696;2023-03-17T12:26:22;18.20;89.90
16846;DHT22;8539;53.188;8.696;2023-03-17T12:31:42;18.10;89.30
16846;DHT22;8539;53.188;8.696;2023-03-17T12:36:57;17.90;88.60
16846;DHT22;8539;53.188;8.696;2023-03-17T12:39:23;17.90;88.60
16846;DHT22;8539;53.188;8.696;2023-03-17T12:45:05;18.10;89.00
16846;DHT22;8539;53.188;8.696;2023-03-17T12:50:32;18.10;88.90
16846;DHT22;8539;53.188;8.696;2023-03-17T12:55:50;18.10;88.50
16846;DHT22;8539;53.188;8.696;2023-03-17T12:58:36;18.00;88.30
16846;DHT22;8539;53.188;8.696;2023-03-17T13:06:47;17.90;88.00
16846;DHT22;8539;53.188;8.696;2023-03-17T13:12:05;17.90;88.70
16846;DHT22;8539;53.188;8.696;2023-03-17T13:14:45;18.00;88.90
16846;DHT22;8539;53.188;8.696;2023-03-17T13:25:29;18.40;89.30
16846;DHT22;8539;53.188;8.696;2023-03-17T13:44:14;17.70;88.00
16846;DHT22;8539;53.188;8.696;2023-03-17T13:46:45;17.60;88.30
16846;DHT22;8539;53.188;8.696;2023-03-17T13:52:10;17.50;89.20
16846;DHT22;8539;53.188;8.696;2023-03-17T13:54:47;17.50;89.40
16846;DHT22;8539;53.188;8.696;2023-03-17T14:02:19;17.30;89.90
16846;DHT22;8539;53.188;8.696;2023-03-17T14:05:00;17.10;89.90
16846;DHT22;8539;53.188;8.696;2023-03-17T14:07:38;16.90;89.90
16846;DHT22;8539;53.188;8.696;2023-03-17T14:10:16;16.80;90.10
16846;DHT22;8539;53.188;8.696;2023-03-17T14:15:44;16.60;90.40
16846;DHT22;8539;53.188;8.696;2023-03-17T14:18:19;16.60;90.60
16846;DHT22;8539;53.188;8.696;2023-03-17T14:20:57;16.60;90.70
16846;DHT22;8539;53.188;8.696;2023-03-17T14:23:24;16.50;90.80
16846;DHT22;8539;53.188;8.696;2023-03-17T14:25:57;16.50;90.90
16846;DHT22;8539;53.188;8.696;2023-03-17T14:28:27;16.40;91.10
16846;DHT22;8539;53.188;8.696;2023-03-17T14:31:06;16.30;91.20
16846;DHT22;8539;53.188;8.696;2023-03-17T14:33:36;16.30;91.50
16846;DHT22;8539;53.188;8.696;2023-03-17T14:36:07;16.30;91.70
16846;DHT22;8539;53.188;8.696;2023-03-17T14:38:35;16.30;91.70
16846;DHT22;8539;53.188;8.696;2023-03-17T14:43:34;16.10;91.90
16846;DHT22;8539;53.188;8.696;2023-03-17T14:46:05;16.10;91.90
16846;DHT22;8539;53.188;8.696;2023-03-17T14:48:36;16.10;91.90
16846;DHT22;8539;53.188;8.696;2023-03-17T14:51:07;16.10;92.10
16846;DHT22;8539;53.188;8.696;2023-03-17T14:53:38;16.10;92.20
16846;DHT22;8539;53.188;8.696;2023-03-17T14:56:05;16.20;92.40
16846;DHT22;8539;53.188;8.696;2023-03-17T14:58:40;16.30;92.60
16846;DHT22;8539;53.188;8.696;2023-03-17T15:03:39;16.40;92.90
16846;DHT22;8539;53.188;8.696;2023-03-17T15:06:21;16.40;92.90
16846;DHT22;8539;53.188;8.696;2023-03-17T15:08:48;16.50;93.00
16846;DHT22;8539;53.188;8.696;2023-03-17T15:11:37;16.60;93.00
16846;DHT22;8539;53.188;8.696;2023-03-17T15:14:33;16.70;93.10
16846;DHT22;8539;53.188;8.696;2023-03-17T15:17:02;16.80;93.10
16846;DHT22;8539;53.188;8.696;2023-03-17T15:22:18;16.80;92.80
16846;DHT22;8539;53.188;8.696;2023-03-17T15:24:52;16.70;92.80
16846;DHT22;8539;53.188;8.696;2023-03-17T15:27:22;16.70;92.70
16846;DHT22;8539;53.188;8.696;2023-03-17T15:29:48;16.50;92.60
16846;DHT22;8539;53.188;8.696;2023-03-17T15:32:17;16.50;92.70
16846;DHT22;8539;53.188;8.696;2023-03-17T15:34:47;16.40;92.80
16846;DHT22;8539;53.188;8.696;2023-03-17T15:37:19;16.40;92.90
16846;DHT22;8539;53.188;8.696;2023-03-17T15:39:47;16.30;92.90
16846;DHT22;8539;53.188;8.696;2023-03-17T15:42:15;16.30;93.00
16846;DHT22;8539;53.188;8.696;2023-03-17T15:44:42;16.20;93.20
16846;DHT22;8539;53.188;8.696;2023-03-17T15:47:14;16.20;93.20
16846;DHT22;8539;53.188;8.696;2023-03-17T15:49:41;16.10;93.10
16846;DHT22;8539;53.188;8.696;2023-03-17T15:52:22;16.00;93.20
16846;DHT22;8539;53.188;8.696;2023-03-17T15:54:57;15.90;93.20
16846;DHT22;8539;53.188;8.696;2023-03-17T15:57:23;15.80;93.20
16846;DHT22;8539;53.188;8.696;2023-03-17T15:59:50;15.70;93.30
16846;DHT22;8539;53.188;8.696;2023-03-17T16:02:26;15.60;93.40
16846;DHT22;8539;53.188;8.696;2023-03-17T16:04:53;15.50;93.60
16846;DHT22;8539;53.188;8.696;2023-03-17T16:07:20;15.40;93.80
16846;DHT22;8539;53.188;8.696;2023-03-17T16:09:47;15.30;94.00
16846;DHT22;8539;53.188;8.696;2023-03-17T16:12:14;15.30;94.20
16846;DHT22;8539;53.188;8.696;2023-03-17T16:14:41;15.20;94.40
16846;DHT22;8539;53.188;8.696;2023-03-17T16:17:24;15.20;94.70
16846;DHT22;8539;53.188;8.696;2023-03-17T16:19:54;15.10;94.90
16846;DHT22;8539;53.188;8.696;2023-03-17T16:24:59;15.00;95.20
16846;DHT22;8539;53.188;8.696;2023-03-17T16:27:26;15.00;95.30
16846;DHT22;8539;53.188;8.696;2023-03-17T16:29:53;14.90;95.40
16846;DHT22;8539;53.188;8.696;2023-03-17T16:32:19;14.90;95.60
16846;DHT22;8539;53.188;8.696;2023-03-17T16:34:45;14.90;95.80
16846;DHT22;8539;53.188;8.696;2023-03-17T16:37:14;14.80;96.00
16846;DHT22;8539;53.188;8.696;2023-03-17T16:39:41;14.70;96.40
16846;DHT22;8539;53.188;8.696;2023-03-17T16:42:22;14.70;96.70
16846;DHT22;8539;53.188;8.696;2023-03-17T16:44:49;14.60;97.00
16846;DHT22;8539;53.188;8.696;2023-03-17T16:47:15;14.60;97.40
16846;DHT22;8539;53.188;8.696;2023-03-17T16:49:41;14.60;97.70
16846;DHT22;8539;53.188;8.696;2023-03-17T16:52:07;14.60;98.00
16846;DHT22;8539;53.188;8.696;2023-03-17T16:54:35;14.50;98.20
16846;DHT22;8539;53.188;8.696;2023-03-17T16:57:01;14.40;98.40
16846;DHT22;8539;53.188;8.696;2023-03-17T16:59:28;14.40;98.70
16846;DHT22;8539;53.188;8.696;2023-03-17T17:01:57;14.30;98.90
16846;DHT22;8539;53.188;8.696;2023-03-17T17:04:23;14.20;99.10
16846;DHT22;8539;53.188;8.696;2023-03-17T17:06:49;14.10;99.40
16846;DHT22;8539;53.188;8.696;2023-03-17T17:09:15;14.00;99.60
16846;DHT22;8539;53.188;8.696;2023-03-17T17:11:41;13.90;99.80
16846;DHT22;8539;53.188;8.696;2023-03-17T17:14:07;13.80;99.80
16846;DHT22;8539;53.188;8.696;2023-03-17T17:16:35;13.80;99.90
16846;DHT22;8539;53.188;8.696;2023-03-17T17:19:03;13.70;99.90
16846;DHT22;8539;53.188;8.696;2023-03-17T17:21:29;13.70;99.90
16846;DHT22;8539;53.188;8.696;2023-03-17T17:23:56;13.70;99.90
16846;DHT22;8539;53.188;8.696;2023-03-17T17:26:23;13.60;99.90
16846;DHT22;8539;53.188;8.696;2023-03-17T17:28:49;13.60;99.90
16846;DHT22;8539;53.188;8.696;2023-03-17T17:31:15;13.50;99.90
16846;DHT22;8539;53.188;8.696;2023-03-17T17:33:42;13.40;99.90
16846;DHT22;8539;53.188;8.696;2023-03-17T17:36:14;13.40;99.90
16846;DHT22;8539;53.188;8.696;2023-03-17T17:38:41;13.20;99.90
16846;DHT22;8539;53.188;8.696;2023-03-17T17:41:10;13.20;99.90
16846;DHT22;8539;53.188;8.696;2023-03-17T17:43:36;13.20;99.90
16846;DHT22;8539;53.188;8.696;2023-03-17T17:46:02;13.20;99.90
16846;DHT22;8539;53.188;8.696;2023-03-17T17:48:29;13.20;99.90
16846;DHT22;8539;53.188;8.696;2023-03-17T17:50:56;13.10;99.90
16846;DHT22;8539;53.188;8.696;2023-03-17T17:53:23;13.10;99.90
16846;DHT22;8539;53.188;8.696;2023-03-17T17:55:49;13.10;99.90
16846;DHT22;8539;53.188;8.696;2023-03-17T17:58:19;13.00;99.90
16846;DHT22;8539;53.188;8.696;2023-03-17T18:00:46;13.00;99.90
16846;DHT22;8539;53.188;8.696;2023-03-17T18:03:12;12.90;99.90
16846;DHT22;8539;53.188;8.696;2023-03-17T18:05:38;12.80;99.90
16846;DHT22;8539;53.188;8.696;2023-03-17T18:08:04;12.80;99.90
16846;DHT22;8539;53.188;8.696;2023-03-17T18:10:31;12.70;99.90
16846;DHT22;8539;53.188;8.696;2023-03-17T18:12:57;12.60;99.90
16846;DHT22;8539;53.188;8.696;2023-03-17T18:15:25;12.60;99.90